AirNav   Duncan Aviation - Near you to keep you flying
 
 653 users online  

44FD Hard Rock Heliport
Hollywood, Florida, USA

GOING TO HOLLYWOOD?


FAA INFORMATION EFFECTIVE 11 AUGUST 2022

Location

FAA Identifier: 44FD
Lat/Long: 26-03-02.6900N 080-12-39.2000W
26-03.044833N 080-12.653333W
26.0507472,-80.2108889
(estimated)
Elevation: 125 ft. / 38 m (estimated)
From city: 5 miles NW of HOLLYWOOD, FL
Time zone: UTC -4 (UTC -5 during Standard Time)
Zip code: 33314

Heliport Operations

Heliport use: Private use. Permission required prior to landing
Activation date: 12/2015
Control tower: no
ARTCC: MIAMI CENTER
FSS: MIAMI FLIGHT SERVICE STATION
Attendance: IREG
Wind indicator: yes
Segmented circle: yes

Heliport Communications

WX ASOS at HWO (3 nm SW): PHONE 954-983-5904
WX ASOS at FLL (4 nm E): 135.0 (954-359-7857)
WX ASOS at FXE (9 nm N): 119.85 (954-772-2537)
WX ASOS at OPF (9 nm SW): 125.9 (305-681-4063)
WX ASOS at PMP (13 nm NE): 120.55 (954-783-3720)
WX ASOS at MIA (16 nm S): 119.15 (305-870-0235)

Nearby radio navigation aids

VOR radial/distance  VOR name  Freq  Var
FLLr246/2.8FORT LAUDERDALE VOR/DME114.4006W
DHPr030/16.8DOLPHIN VORTAC113.9004W
VKZr354/18.2VIRGINIA KEY VOR/DME117.1004W
PBIr193/38.3PALM BEACH VORTAC115.7003W

Heliport Services

Runway Information

Helipad H1

Dimensions: 50 x 50 ft. / 15 x 15 m
Surface: ROOF/TOP
Weight bearing capacity: 
Single wheel: 12.5
Traffic pattern: leftleft

Heliport Ownership and Management from official FAA records

Ownership: Privately-owned
Owner: SEMINOLE TRIBE OF FLORIDA
1 SEMINOLE WAY
HOLLYWOOD, FL 33024
Phone 863-983-7677
Manager: AARON WAINMAN
1440 SW 43RD STREET
FORT LAUDERDALE, FL 33315
Phone 239-849-2365

Additional Remarks

HELI IS LCTD ON THE TOP FLOOR OF A PARKING GARAGE.
FOR CD CTC MIAMI APCH AT 305-869-5432.

Instrument Procedures

There are no published instrument procedures at 44FD.

Some nearby airports with instrument procedures:

KHWO - North Perry Airport (3 nm SW)
KFLL - Fort Lauderdale/Hollywood International Airport (4 nm E)
KFXE - Fort Lauderdale Executive Airport (9 nm N)
KOPF - Miami-Opa Locka Executive Airport (9 nm SW)
KPMP - Pompano Beach Airpark (13 nm NE)
KMIA - Miami International Airport (16 nm S)
 
Loc | Ops | Rwys | IFR | FBO | Links
Com | Nav | Svcs | Stats | Notes


 
Aerial photo
No photo
 
Airport distance calculator
Flying to Hard Rock Heliport? Find the distance to fly.

From to 44FD

Sunrise and sunset
Times for 17-Aug-2022
 Local
(UTC-4)
 Zulu
(UTC)
Morning civil twilight06:3110:31
Sunrise06:5510:55
Sunset19:5423:54
Evening civil twilight20:1800:18

Current date and time
Zulu (UTC)  17-Aug-2022 09:45:50
Local (UTC-4)  17-Aug-2022 05:45:50
 
METAR
KHWO 
3nm S 
170853Z AUTO 19003KT 10SM CLR 25/23 A2995 RMK AO2 SLP140 T02500233 56002
KFLL 
3nm E 
170853Z 25003KT 10SM CLR 26/24 A2993 RMK AO2 SLP133 T02610244 57001 $
KOPF 
9nm SW 
170853Z AUTO 20004KT 10SM CLR A2994 RMK AO2 SLP141 55000 $
KFXE 
9nm N 
170853Z AUTO 00000KT 10SM CLR 26/24 A2993 RMK AO2 SLP137 T02610244 58001 TSNO
KPMP 
13nm NE 
170853Z AUTO 24003KT 10SM CLR 26/24 A2993 RMK AO2 SLP136 T02560244 56001 $
KMIA 
17nm S 
170853Z 20004KT 10SM CLR 27/24 A2994 RMK AO2 SLP140 T02670244 56000 $
TAF
KFLL 
3nm E 
170520Z 1706/1812 VRB03KT P6SM FEW030 SCT200 FM171500 24007KT P6SM SCT030 BKN050 FM171800 19010KT P6SM VCTS SCT030CB BKN050 FM172300 22007KT P6SM SCT035 BKN250 FM180200 VRB04KT P6SM FEW030 SCT200
KOPF 
9nm SW 
170520Z 1706/1806 VRB03KT P6SM FEW030 SCT200 FM171500 24007KT P6SM SCT030 BKN050 FM171800 19010KT P6SM VCTS SCT030CB BKN050 FM172300 22007KT P6SM SCT035 BKN250 FM180200 VRB04KT P6SM FEW030 SCT200
KFXE 
9nm N 
170520Z 1706/1806 VRB03KT P6SM FEW030 SCT200 FM171500 24007KT P6SM SCT030 BKN050 FM171800 19010KT P6SM VCTS SCT030CB BKN050 FM172300 22007KT P6SM SCT035 BKN250 FM180200 VRB04KT P6SM FEW030 SCT200
KMIA 
17nm S 
170520Z 1706/1812 VRB03KT P6SM FEW030 SCT200 FM171500 24007KT P6SM SCT030 BKN050 FM171800 19010KT P6SM VCTS SCT030CB BKN050 FM172300 22007KT P6SM SCT035 BKN250 FM180200 VRB04KT P6SM FEW030 SCT200
NOTAMs
Click for the latest NOTAMs
NOTAMs are issued by the DoD/FAA and will open in a separate window not controlled by AirNav.

 

 
 

Would you like to see your business listed on this page?

 If your business provides an interesting product or service to pilots, flight crews, aircraft, or users of the Hard Rock Heliport, you should consider listing it here.  To start the listing process, click on the button below
 
Add a business
 

Other Pages about Hard Rock Heliport

Update a link
 
Copyright © AirNav, LLC. All rights reserved. Privacy Policy  Contact